Aktualne dane pomiarowe

Uwaga, wersja testowa! Automatyczne pobieranie danych za pomocą narzędzi lub skryptów to umożliwiających jest zabronione.

Dane meteo z obszaru Polski uzyskane na podstawie depesz SYNOP pobieranych co godzinę z NWS. Najedź myszką na symbol przedstawiony w tabeli, aby uzyskać informacje co do jego znaczenia. Prosimy pamiętać, że to testowa wersja strony, która jeszcze nie jest ukończona. Stworzono również jest krótki FAQ dotyczący korzystania z tej podstrony Anomalie temperatury w chwili obecnej odniesione są do okresu referencyjnego 1951-2016. Okres ten będzie później zmieniony na 1981-2010. Kliknij ikonę aby pobrać plik CSV. Kliknij ikonę aby wygenerować mapę synoptyczną dla danego terminu.

Wybierz Datę:    

        

Lublin-Radawiec (12495)

Dane terminowe dla wybranej stacji. Kliknij datę, aby otrzymać dane z tego terminu dla wszystkich stacji.

TemperaturaZachmurzenieWiatrCiśnienieOpadyPogoda
 Data t td wb tx tn tg rh  Nt Nl Cl Cm Ch ws wd g1 g2 wx mslp ppp ch 24h 12h t ww ww w1 w2  
2019-07-04 23:00:00 11.7 6.3 8.5--- 6945.0wx-wx1wx---1017.3 988.4 -1.0---------
2019-07-04 22:00:00 10.7 6.2 8.0--- 7440.0wx-wx1wx--11017.7 988.7 -0.7---------
2019-07-04 21:00:00 12.2 6.3 8.7--- 6730.0wx-wx1wx--11018.0 989.2 -0.3---------
2019-07-04 20:00:00 12.9 6.3 9.1--- 6440.0wx-wx1wx--11018.2 989.4 -0.2---------
2019-07-04 19:00:00 15.5 5.2 9.9--- 5050.0wx-wx1wx--11017.9 989.4 -0.6---------
2019-07-04 18:00:00 18.5 4.7 11.1 21.8 14.8- 4035.0wxwxwxwx2wx-1021017.7 989.5 -0.8- 0.012------
2019-07-04 17:00:00 20.1 3.8 11.5--- 3435.0wxwxwxwx4wx-1041017.6 989.6 -1.0---------
2019-07-04 16:00:00 20.2 3.9 11.6--- 3435.0wxwxwxwx3wx---1018.0 990.0 -1.1---------
2019-07-04 15:00:00 20.9 3.7 11.9--- 3235.0wxwxwxwx5wx-1051018.3 990.3 -1.1---------
2019-07-04 14:00:00 20.7 3.0 11.5--- 3135.0wxwxwx5wx101051018.6 990.6 -1.0---------
2019-07-04 13:00:00 19.5 3.3 11.1--- 3440.0wxwxwx5wx--51019.2 991.1 -0.8---------
2019-07-04 12:00:00 19.1 2.9 10.7--- 3440.0wxwxwx5wx---1019.6 991.4 -0.9---------
2019-07-04 11:00:00 18.8 3.1 10.7--- 3535.0wxwxwx4wx101041019.8 991.6 -0.9---------
2019-07-04 10:00:00 18.3 3.0 10.4--- 3645.0wxwxwx4wx-941020.2 991.9 -0.8---------
2019-07-04 09:00:00 17.8 3.7 10.4--- 3935.0wxwxwx5wx--51020.6 992.3 -0.3---------
2019-07-04 08:00:00 16.0 5.1 10.1--- 4845.0wxwxwx3wx--31021.0 992.5 -0.2---------
2019-07-04 07:00:00 16.1 5.5 10.3--- 4940.0wxwxwxwx3wx---1021.2 992.7 0.2---------
2019-07-04 06:00:00 14.8 6.2 9.9 16.5 7.0 4 5640.0wxwxwxwx3wx--31021.3 992.6 0.4- 0.012----- 10.9
2019-07-04 05:00:00 12.5 6.4 8.9--- 6635.0wxwxwxwx3wx--31021.6 992.7 0.6---------
2019-07-04 04:00:00 10.4 6.8 8.2--- 7845.0wxwxwxwx1wx--11021.6 992.5 0.8---------
2019-07-04 03:00:00 7.2 5.3 5.9--- 8835.0wxwxwxwx1wx--11021.6 992.2 0.2---------
2019-07-04 02:00:00 7.6 5.3 6.1--- 8550.0wxwxwxwx1wx--11021.5 992.1 0.4---------
2019-07-04 01:00:00 7.7 4.4 5.7--- 8040.0wx-wx2wx--21021.1 991.7 0.2---------
2019-07-04 00:00:00 9.3 4.4 6.4--- 7145.0wx-wx2wx--21021.2 992.0 0.7- 0.06------
2019-07-03 23:00:00 10.8 4.1 7.1--- 6345.0wx-wx2wx--21020.7 991.7 0.5---------
2019-07-03 22:00:00 11.1 3.9 7.1--- 6150.0wx-2wx--21020.5 991.5 0.7---------
2019-07-03 21:00:00 10.7 4.5 7.2--- 6645.0wxwxwx1wx--11020.3 991.3 0.8---------
2019-07-03 20:00:00 11.3 4.4 7.4--- 6350.0wxwxwx1wx--11020.2 991.2 0.7---------
2019-07-03 19:00:00 13.3 4.5 8.5--- 5550.0wxwxwx2wx--21019.6 990.8 0.5---------
2019-07-03 18:00:00 16.5 3.3 9.6 20.9 15.2- 4140.0wxwxwx4wx-1241018.9 990.5 0.2- 0.012------
2019-07-03 17:00:00 18.2 3.3 10.5--- 3729.0wxwxwx5wx--51018.8 990.5 0.3---------
2019-07-03 16:00:00 18.9 2.8 10.6--- 3430.0wxwxwx7wx--71018.5 990.3 0.1---------
2019-07-03 15:00:00 19.5 4.1 11.4--- 3640.0wxwxwx5wx-1251018.4 990.3 0.2---------
2019-07-03 14:00:00 19.1 3.8 11.1--- 3635.0wxwxwx6wx111261018.4 990.2 0.1---------
2019-07-03 13:00:00 19.3 4.7 11.5--- 3835.0wxwxwx6wx121261018.3 990.2 -0.1---------
2019-07-03 12:00:00 18.4 5.0 11.2--- 4140.0wxwxwx6wx---1018.3 990.1 -0.1---------
2019-07-03 11:00:00 18.8 5.0 11.4--- 4030.0wxwxwx5wx--51018.3 990.1 0.0---------
2019-07-03 10:00:00 17.7 5.0 10.9--- 4330.0wxwxwx5wx-1051018.6 990.3 0.4---------
2019-07-03 09:00:00 18.1 5.4 11.2--- 4335.0wxwxwx5wx101151018.5 990.2 0.0---------
2019-07-03 08:00:00 17.4 5.7 11.0--- 4630.0wxwxwx5wx-1151018.4 990.1 0.2---------
2019-07-03 07:00:00 16.8 7.8 11.6--- 5535.0wxwxwx4wx--41018.3 989.9 0.2---------
2019-07-03 06:00:00 15.2 7.6 10.7 20.7 10.4 9 6030.0wxwxwx4wx--41018.7 990.2 0.7- 0.012----- 10.4
2019-07-03 05:00:00 14.1 7.7 10.3--- 6540.0wxwxwxwx4wx--41018.6 989.9 0.8---------
2019-07-03 04:00:00 13.8 8.5 10.5--- 7040.0wxwxwx3wx--31018.4 989.7 1.0---------
2019-07-03 03:00:00 11.6 8.9 9.8--- 8440.0wxwxwx3wx--31018.4 989.5 1.1---------
2019-07-03 02:00:00 12.6 9.1 10.3--- 7930.0wxwxwx3wx--31017.9 989.1 0.8---------
2019-07-03 01:00:00 11.9 9.0 10.0--- 8230.0wxwxwxwx3wx--31017.5 988.7 0.5---------
2019-07-03 00:00:00 12.3 8.7 10.0--- 7930.0wx-wxwx2wx--21017.2 988.4 0.4- 0.06------
7.1 ms

 

Print Friendly, PDF & Email